createdAt,value
2023-04-20T00:01:09.372Z,15.93
2023-04-20T00:03:33.558Z,13.13
2023-04-20T00:06:01.282Z,12.20
2023-04-20T00:08:25.382Z,12.90
2023-04-20T00:10:49.068Z,17.67
2023-04-20T00:13:13.100Z,14.43
2023-04-20T00:15:36.851Z,12.80
2023-04-20T00:18:00.767Z,13.90
2023-04-20T00:20:24.628Z,13.87
2023-04-20T00:22:49.740Z,12.63
2023-04-20T00:25:13.348Z,15.20
2023-04-20T00:27:37.067Z,14.90
2023-04-20T00:30:00.709Z,13.47
2023-04-20T00:32:24.449Z,15.60
2023-04-20T00:34:48.170Z,14.48
2023-04-20T00:37:11.923Z,13.50
2023-04-20T00:39:37.040Z,14.52
2023-04-20T00:42:06.570Z,13.85
2023-04-20T00:44:30.447Z,17.92
2023-04-20T00:46:56.459Z,15.60
2023-04-20T00:49:20.123Z,18.70
2023-04-20T00:51:45.534Z,18.73
2023-04-20T00:54:09.395Z,14.80
2023-04-20T00:56:34.646Z,15.83
2023-04-20T00:59:02.474Z,17.00
2023-04-20T01:01:27.204Z,16.75
2023-04-20T01:03:51.918Z,15.60
2023-04-20T01:06:16.486Z,20.80
2023-04-20T01:08:48.594Z,16.17
2023-04-20T01:11:12.248Z,14.97
2023-04-20T01:13:38.494Z,19.08
2023-04-20T01:16:03.642Z,17.13
2023-04-20T01:18:27.867Z,16.67
2023-04-20T01:20:51.542Z,23.60
2023-04-20T01:23:16.898Z,19.27
2023-04-20T01:25:41.735Z,18.95
2023-04-20T01:28:05.859Z,16.25
2023-04-20T01:30:30.190Z,16.83
2023-04-20T01:32:53.970Z,16.10
2023-04-20T01:35:19.599Z,14.00
2023-04-20T01:37:43.623Z,13.48
2023-04-20T01:40:11.611Z,19.90
2023-04-20T01:42:35.422Z,18.03
2023-04-20T01:44:59.658Z,16.30
2023-04-20T01:47:23.517Z,18.88
2023-04-20T01:49:47.298Z,15.00
2023-04-20T01:52:11.234Z,16.30
2023-04-20T01:54:34.985Z,17.85
2023-04-20T01:56:59.951Z,18.60
2023-04-20T01:59:23.604Z,18.88
2023-04-20T02:01:47.318Z,18.27
2023-04-20T02:04:13.930Z,18.98
2023-04-20T02:06:39.654Z,18.67
2023-04-20T02:09:06.816Z,20.38
2023-04-20T02:11:31.933Z,18.20
2023-04-20T02:13:57.469Z,19.90
2023-04-20T02:16:21.994Z,23.13
2023-04-20T02:18:45.950Z,23.17
2023-04-20T02:21:09.704Z,23.65
2023-04-20T02:23:33.820Z,22.77
2023-04-20T02:25:57.410Z,20.95
2023-04-20T02:28:21.096Z,23.95
2023-04-20T02:30:46.203Z,26.83
2023-04-20T02:33:10.174Z,27.48
2023-04-20T02:35:37.383Z,25.58
2023-04-20T02:38:03.299Z,26.75
2023-04-20T02:40:27.045Z,28.33
2023-04-20T02:42:50.939Z,28.52
2023-04-20T02:45:14.649Z,35.63
2023-04-20T02:47:42.197Z,31.02
2023-04-20T02:50:09.213Z,33.22
2023-04-20T02:52:48.124Z,33.00
2023-04-20T02:55:11.904Z,31.90
2023-04-20T02:57:36.882Z,27.95
2023-04-20T03:00:00.954Z,29.83
2023-04-20T03:02:38.021Z,29.70
2023-04-20T03:05:15.892Z,32.33
2023-04-20T03:07:44.594Z,30.65
2023-04-20T03:10:14.213Z,34.17
2023-04-20T03:12:47.565Z,34.33
2023-04-20T03:15:30.584Z,29.50
2023-04-20T03:18:18.666Z,29.73
2023-04-20T03:20:44.187Z,36.67
2023-04-20T03:23:08.424Z,31.55
2023-04-20T03:25:33.133Z,35.65
2023-04-20T03:28:01.419Z,35.63
2023-04-20T03:30:26.289Z,32.63
2023-04-20T03:32:56.870Z,37.92
2023-04-20T03:35:21.671Z,32.22
2023-04-20T03:37:46.643Z,39.30
2023-04-20T03:40:11.824Z,37.92
2023-04-20T03:42:35.413Z,36.50
2023-04-20T03:44:59.162Z,40.40
2023-04-20T03:47:23.096Z,37.40
2023-04-20T03:49:46.889Z,39.90
2023-04-20T03:52:10.402Z,46.83
2023-04-20T03:54:35.399Z,38.92
2023-04-20T03:56:59.627Z,45.73
2023-04-20T03:59:24.511Z,38.22
2023-04-20T04:01:48.241Z,44.27
2023-04-20T04:04:13.326Z,43.13
2023-04-20T04:06:37.320Z,45.37
2023-04-20T04:09:01.164Z,48.10
2023-04-20T04:11:30.017Z,47.13
2023-04-20T04:13:54.624Z,41.63
2023-04-20T04:16:18.379Z,48.92
2023-04-20T04:18:45.243Z,48.30
2023-04-20T04:21:10.333Z,50.38
2023-04-20T04:23:35.898Z,45.55
2023-04-20T04:26:09.151Z,51.13
2023-04-20T04:28:37.669Z,58.40
2023-04-20T04:31:21.498Z,54.97
2023-04-20T04:33:46.371Z,58.42
2023-04-20T04:36:16.585Z,54.42
2023-04-20T04:38:40.268Z,56.03
2023-04-20T04:41:05.614Z,56.78
2023-04-20T04:43:30.702Z,53.58
2023-04-20T04:46:14.670Z,51.67
2023-04-20T04:48:40.742Z,57.92
2023-04-20T04:51:04.400Z,55.38
2023-04-20T04:53:28.079Z,56.30
2023-04-20T04:55:51.619Z,56.70
2023-04-20T04:58:15.179Z,55.47
2023-04-20T05:00:38.878Z,53.77
2023-04-20T05:03:04.041Z,60.83
2023-04-20T05:05:28.182Z,61.78
2023-04-20T05:07:51.807Z,59.65
2023-04-20T05:10:15.440Z,61.23
2023-04-20T05:12:39.968Z,56.63
2023-04-20T05:15:03.696Z,54.05
2023-04-20T05:17:27.448Z,57.25
2023-04-20T05:19:52.452Z,60.00
2023-04-20T05:22:16.282Z,57.25
2023-04-20T05:24:39.943Z,63.88
2023-04-20T05:27:04.248Z,60.55
2023-04-20T05:29:27.992Z,54.22
2023-04-20T05:31:51.690Z,48.28
2023-04-20T05:34:15.212Z,48.85
2023-04-20T05:36:41.789Z,47.42
2023-04-20T05:39:06.040Z,53.75
2023-04-20T05:41:29.620Z,47.53
2023-04-20T05:43:53.223Z,52.75
2023-04-20T05:46:16.815Z,51.53
2023-04-20T05:48:40.571Z,53.90
2023-04-20T05:51:04.160Z,47.10
2023-04-20T05:53:29.084Z,48.58
2023-04-20T05:55:52.747Z,46.92
2023-04-20T05:58:17.036Z,49.42
2023-04-20T06:00:40.961Z,53.72
2023-04-20T06:03:05.501Z,46.40
2023-04-20T06:05:29.524Z,45.90
2023-04-20T06:07:53.249Z,43.53
2023-04-20T06:10:18.526Z,47.25
2023-04-20T06:12:42.139Z,45.30
2023-04-20T06:15:08.548Z,41.30
2023-04-20T06:17:32.215Z,45.75
2023-04-20T06:19:56.558Z,42.58
2023-04-20T06:22:20.679Z,39.25
2023-04-20T06:24:44.636Z,36.22
2023-04-20T06:27:09.648Z,39.95
2023-04-20T06:29:33.227Z,44.75
2023-04-20T06:31:56.942Z,41.08
2023-04-20T06:34:20.607Z,38.70
2023-04-20T06:36:44.624Z,39.13
2023-04-20T06:39:08.243Z,36.95
2023-04-20T06:41:31.909Z,39.08
2023-04-20T06:44:03.666Z,36.83
2023-04-20T06:46:27.269Z,37.10
2023-04-20T06:48:50.867Z,35.53
2023-04-20T06:51:15.058Z,34.30
2023-04-20T06:53:38.615Z,35.42
2023-04-20T06:56:02.435Z,32.28
2023-04-20T06:58:25.943Z,32.95
2023-04-20T07:00:52.559Z,30.95
2023-04-20T07:03:16.569Z,31.63
2023-04-20T07:05:40.438Z,29.02
2023-04-20T07:08:04.082Z,25.20
2023-04-20T07:10:28.473Z,29.92
2023-04-20T07:12:52.316Z,27.08
2023-04-20T07:15:16.192Z,28.67
2023-04-20T07:17:42.691Z,23.98
2023-04-20T07:20:08.706Z,24.88
2023-04-20T07:22:32.609Z,23.77
2023-04-20T07:24:56.377Z,27.83
2023-04-20T07:27:20.583Z,27.13
2023-04-20T07:29:44.256Z,23.35
2023-04-20T07:32:09.527Z,25.95
2023-04-20T07:34:42.301Z,25.77
2023-04-20T07:37:07.486Z,24.35
2023-04-20T07:39:31.075Z,24.77
2023-04-20T07:41:57.436Z,25.00
2023-04-20T07:44:22.969Z,27.35
2023-04-20T07:46:47.704Z,27.13
2023-04-20T07:49:13.043Z,28.27
2023-04-20T07:51:38.839Z,25.77
2023-04-20T07:54:02.529Z,26.75
2023-04-20T07:56:26.463Z,27.50
2023-04-20T07:58:50.104Z,25.40
2023-04-20T08:01:13.753Z,25.13
2023-04-20T08:03:37.636Z,24.13
2023-04-20T08:06:01.808Z,25.83
2023-04-20T08:08:26.950Z,21.52
2023-04-20T08:10:50.897Z,25.05
2023-04-20T08:13:14.454Z,25.50
2023-04-20T08:15:38.211Z,23.20
2023-04-20T08:18:01.956Z,23.05
2023-04-20T08:20:25.806Z,21.77
2023-04-20T08:22:49.494Z,23.88
2023-04-20T08:25:14.782Z,24.02
2023-04-20T08:27:38.642Z,23.88
2023-04-20T08:30:04.323Z,21.17
2023-04-20T08:32:29.326Z,20.45
2023-04-20T08:34:53.465Z,22.58
2023-04-20T08:37:17.357Z,22.30
2023-04-20T08:39:41.332Z,25.05
2023-04-20T08:42:07.377Z,25.52
2023-04-20T08:44:31.320Z,24.48
2023-04-20T08:46:55.098Z,22.83
2023-04-20T08:49:20.087Z,23.63
2023-04-20T08:51:44.802Z,27.98
2023-04-20T08:54:08.877Z,24.40
2023-04-20T08:56:37.060Z,21.35
2023-04-20T08:59:03.689Z,23.58
2023-04-20T09:01:35.318Z,25.90
2023-04-20T09:04:00.961Z,27.45
2023-04-20T09:06:24.623Z,21.35
2023-04-20T09:08:48.562Z,23.35
2023-04-20T09:11:23.782Z,24.92
2023-04-20T09:13:58.908Z,25.00
2023-04-20T09:16:24.673Z,26.38
2023-04-20T09:18:54.434Z,24.42
2023-04-20T09:21:18.035Z,24.80
2023-04-20T09:23:42.540Z,24.65
2023-04-20T09:26:06.577Z,27.30
2023-04-20T09:28:38.976Z,29.25
2023-04-20T09:31:02.862Z,29.50
2023-04-20T09:33:31.125Z,27.23
2023-04-20T09:35:54.928Z,26.25
2023-04-20T09:38:18.682Z,26.02
2023-04-20T09:40:42.313Z,27.38
2023-04-20T09:43:15.192Z,26.05
2023-04-20T09:45:41.005Z,25.88
2023-04-20T09:48:07.914Z,25.77
2023-04-20T09:50:45.660Z,25.65
2023-04-20T09:53:13.086Z,25.23
2023-04-20T09:55:36.866Z,25.23
2023-04-20T09:58:02.051Z,23.83
2023-04-20T10:00:25.900Z,28.58
2023-04-20T10:02:49.766Z,27.27
2023-04-20T10:05:13.414Z,23.73
2023-04-20T10:07:38.431Z,22.90
2023-04-20T10:10:11.608Z,22.30
2023-04-20T10:12:36.998Z,21.70
2023-04-20T10:15:01.423Z,26.20
2023-04-20T10:17:31.850Z,19.65
2023-04-20T10:19:55.589Z,18.30
2023-04-20T10:22:32.973Z,18.15
2023-04-20T10:24:58.220Z,18.58
2023-04-20T10:27:22.983Z,15.35
2023-04-20T10:29:47.008Z,17.30
2023-04-20T10:32:10.680Z,17.80
2023-04-20T10:34:35.646Z,14.68
2023-04-20T10:37:10.074Z,16.63
2023-04-20T10:39:33.723Z,16.42
2023-04-20T10:41:59.943Z,15.85
2023-04-20T10:44:23.743Z,15.93
2023-04-20T10:46:51.405Z,16.90
2023-04-20T10:49:15.285Z,16.38
2023-04-20T10:51:38.971Z,13.15
2023-04-20T10:54:06.170Z,15.25
2023-04-20T10:56:37.280Z,15.27
2023-04-20T10:59:09.697Z,14.82
2023-04-20T11:01:33.972Z,14.73
2023-04-20T11:03:57.653Z,14.02
2023-04-20T11:06:24.060Z,18.67
2023-04-20T11:08:47.666Z,16.23
2023-04-20T11:11:21.898Z,17.77
2023-04-20T11:13:45.535Z,17.27
2023-04-20T11:16:13.855Z,17.45
2023-04-20T11:18:37.652Z,20.83
2023-04-20T11:21:01.240Z,20.73
2023-04-20T11:23:27.447Z,19.67
2023-04-20T11:25:52.999Z,19.23
2023-04-20T11:28:16.632Z,17.60
2023-04-20T11:30:41.519Z,17.35
2023-04-20T11:33:06.880Z,18.45
2023-04-20T11:35:38.299Z,17.15
2023-04-20T11:38:01.905Z,17.73
2023-04-20T11:40:26.656Z,18.67
2023-04-20T11:42:52.120Z,20.13
2023-04-20T11:45:15.864Z,18.83
2023-04-20T11:47:40.934Z,18.23
2023-04-20T11:50:07.491Z,17.70
2023-04-20T11:52:31.191Z,19.00
2023-04-20T11:54:54.766Z,16.60
2023-04-20T11:57:18.460Z,18.83
2023-04-20T11:59:43.037Z,19.10
2023-04-20T12:02:06.813Z,19.02
2023-04-20T12:04:30.984Z,18.80
2023-04-20T12:06:56.194Z,20.02
2023-04-20T12:09:20.042Z,18.85
2023-04-20T12:11:44.016Z,19.05
2023-04-20T12:14:07.993Z,20.98
2023-04-20T12:16:31.804Z,17.60
2023-04-20T12:18:56.235Z,19.92
2023-04-20T12:21:19.863Z,18.55
2023-04-20T12:23:46.647Z,16.00
2023-04-20T12:26:10.293Z,18.08
2023-04-20T12:28:34.418Z,19.65
2023-04-20T12:30:58.210Z,18.70
2023-04-20T12:33:21.871Z,19.63
2023-04-20T12:35:46.348Z,16.00
2023-04-20T12:38:10.301Z,18.20
2023-04-20T12:40:36.651Z,17.90
2023-04-20T12:43:00.290Z,15.77
2023-04-20T12:45:24.255Z,18.25
2023-04-20T12:47:47.886Z,19.08
2023-04-20T12:50:12.402Z,20.55
2023-04-20T12:52:36.196Z,20.42
2023-04-20T12:55:00.046Z,17.70
2023-04-20T12:57:25.067Z,20.10
2023-04-20T12:59:49.686Z,20.55
2023-04-20T13:02:13.387Z,17.48
2023-04-20T13:04:37.378Z,18.75
2023-04-20T13:07:00.957Z,18.42
2023-04-20T13:09:27.196Z,20.75
2023-04-20T13:11:50.821Z,21.73
2023-04-20T13:14:15.893Z,18.55
2023-04-20T13:16:39.647Z,15.70
2023-04-20T13:19:03.488Z,16.35
2023-04-20T13:21:27.165Z,17.58
2023-04-20T13:23:51.276Z,16.35
2023-04-20T13:26:14.874Z,14.63
2023-04-20T13:28:38.833Z,17.35
2023-04-20T13:31:03.782Z,16.13
2023-04-20T13:33:27.542Z,15.00
2023-04-20T13:35:51.542Z,16.85
2023-04-20T13:38:15.130Z,17.05
2023-04-20T13:40:38.709Z,18.25
2023-04-20T13:43:02.305Z,15.52
2023-04-20T13:45:27.076Z,16.17
2023-04-20T13:47:52.326Z,15.95
2023-04-20T13:50:15.964Z,18.50
2023-04-20T13:52:39.822Z,16.80
2023-04-20T13:55:03.789Z,14.57
2023-04-20T13:57:27.458Z,17.85
2023-04-20T13:59:51.301Z,14.32
2023-04-20T14:02:14.958Z,14.63
2023-04-20T14:04:40.079Z,16.13
2023-04-20T14:07:03.778Z,14.00
2023-04-20T14:09:28.561Z,15.77
2023-04-20T14:11:55.003Z,16.60
2023-04-20T14:14:20.706Z,15.43
2023-04-20T14:16:45.319Z,14.27
2023-04-20T14:19:09.102Z,17.23
2023-04-20T14:21:34.954Z,15.75
2023-04-20T14:23:59.088Z,15.05
2023-04-20T14:26:22.822Z,19.70
2023-04-20T14:28:47.142Z,18.70
2023-04-20T14:31:10.803Z,14.38
2023-04-20T14:33:34.372Z,12.57
2023-04-20T14:35:58.092Z,17.30
2023-04-20T14:38:24.792Z,14.50
2023-04-20T14:40:50.971Z,18.42
2023-04-20T14:43:14.560Z,13.43
2023-04-20T14:45:38.176Z,14.63
2023-04-20T14:48:01.875Z,14.18
2023-04-20T14:50:27.496Z,14.20
2023-04-20T14:52:51.070Z,13.02
2023-04-20T14:55:16.222Z,17.25
2023-04-20T14:57:39.795Z,12.07
2023-04-20T15:00:06.589Z,12.55
2023-04-20T15:02:32.686Z,13.27
2023-04-20T15:04:59.182Z,13.15
2023-04-20T15:07:23.038Z,14.38
2023-04-20T15:09:46.696Z,11.13
2023-04-20T15:12:11.826Z,16.00
2023-04-20T15:14:35.598Z,15.45
2023-04-20T15:17:01.525Z,18.95
2023-04-20T15:19:25.200Z,16.33
2023-04-20T15:21:48.747Z,14.63
2023-04-20T15:24:12.418Z,14.02
2023-04-20T15:26:36.211Z,11.40
2023-04-20T15:29:01.185Z,15.02
2023-04-20T15:31:24.781Z,14.73
2023-04-20T15:33:49.082Z,12.65
2023-04-20T15:36:13.221Z,12.50
2023-04-20T15:38:37.229Z,12.10
2023-04-20T15:41:01.127Z,14.18
2023-04-20T15:43:25.324Z,14.45
2023-04-20T15:45:51.243Z,13.43
2023-04-20T15:48:15.173Z,13.30
2023-04-20T15:50:38.908Z,11.20
2023-04-20T15:53:02.961Z,10.63
2023-04-20T15:55:26.990Z,12.80
2023-04-20T15:57:57.348Z,11.32
2023-04-20T16:00:21.873Z,14.60
2023-04-20T16:02:47.300Z,10.43
2023-04-20T16:05:11.418Z,13.20
2023-04-20T16:07:35.077Z,10.63
2023-04-20T16:09:59.347Z,10.48
2023-04-20T16:12:26.490Z,10.90
2023-04-20T16:14:56.075Z,12.80
2023-04-20T16:17:20.012Z,12.43
2023-04-20T16:19:45.175Z,11.60
2023-04-20T16:22:11.204Z,9.38
2023-04-20T16:24:37.326Z,11.65
2023-04-20T16:27:03.974Z,11.75
2023-04-20T16:29:27.955Z,12.52
2023-04-20T16:31:51.758Z,15.10
2023-04-20T16:34:16.071Z,13.52
2023-04-20T16:36:43.198Z,12.75
2023-04-20T16:39:06.982Z,9.82
2023-04-20T16:41:30.492Z,15.95
2023-04-20T16:43:54.060Z,11.65
2023-04-20T16:46:19.150Z,12.43
2023-04-20T16:48:43.077Z,10.60
2023-04-20T16:51:06.931Z,9.55
2023-04-20T16:53:32.077Z,10.38
2023-04-20T16:55:55.596Z,9.40
2023-04-20T16:58:19.393Z,11.25
2023-04-20T17:00:48.135Z,12.77
2023-04-20T17:03:13.785Z,12.57
2023-04-20T17:05:43.544Z,12.45
2023-04-20T17:08:12.387Z,9.57
2023-04-20T17:10:38.567Z,11.68
2023-04-20T17:13:02.658Z,12.40
2023-04-20T17:15:26.860Z,15.18
2023-04-20T17:17:50.561Z,11.93
2023-04-20T17:20:14.574Z,12.68
2023-04-20T17:22:38.251Z,15.25
2023-04-20T17:25:03.234Z,13.55
2023-04-20T17:27:28.271Z,13.95
2023-04-20T17:29:52.087Z,14.77
2023-04-20T17:32:15.896Z,11.02
2023-04-20T17:34:40.023Z,12.23
2023-04-20T17:37:03.874Z,12.23
2023-04-20T17:39:27.602Z,13.48
2023-04-20T17:41:51.744Z,19.73
2023-04-20T17:44:22.717Z,12.52
2023-04-20T17:46:47.942Z,11.48
2023-04-20T17:49:11.874Z,12.10
2023-04-20T17:51:35.849Z,12.25
2023-04-20T17:53:59.754Z,18.35
2023-04-20T17:56:24.028Z,12.82
2023-04-20T17:58:48.340Z,12.88
2023-04-20T18:01:14.171Z,12.48
2023-04-20T18:03:38.014Z,11.68
2023-04-20T18:06:02.612Z,17.77
2023-04-20T18:08:26.164Z,14.80
2023-04-20T18:10:49.880Z,12.02
2023-04-20T18:13:13.488Z,12.48
2023-04-20T18:15:37.164Z,11.45
2023-04-20T18:18:07.995Z,15.38
2023-04-20T18:20:32.632Z,18.90
2023-04-20T18:23:08.021Z,14.75
2023-04-20T18:25:37.867Z,11.70
2023-04-20T18:28:09.378Z,12.40
2023-04-20T18:30:32.949Z,18.63
2023-04-20T18:32:56.625Z,15.75
2023-04-20T18:35:21.621Z,13.77
2023-04-20T18:37:45.156Z,14.07
2023-04-20T18:40:15.503Z,14.43
2023-04-20T18:42:42.096Z,15.65
2023-04-20T18:45:07.706Z,13.40
2023-04-20T18:47:32.049Z,17.55
2023-04-20T18:49:56.059Z,22.77
2023-04-20T18:52:21.941Z,19.67
2023-04-20T18:54:46.924Z,13.27
2023-04-20T18:57:10.601Z,13.77
2023-04-20T18:59:34.580Z,16.50
2023-04-20T19:01:58.801Z,12.38
2023-04-20T19:04:22.850Z,11.68
2023-04-20T19:06:47.119Z,16.48
2023-04-20T19:09:14.376Z,17.05
2023-04-20T19:11:40.124Z,13.82
2023-04-20T19:14:07.574Z,13.85
2023-04-20T19:16:32.634Z,22.58
2023-04-20T19:18:56.982Z,16.80
2023-04-20T19:21:25.138Z,14.73
2023-04-20T19:23:49.482Z,13.32
2023-04-20T19:26:14.572Z,16.48
2023-04-20T19:28:38.113Z,13.77
2023-04-20T19:31:02.031Z,15.57
2023-04-20T19:33:25.704Z,12.90
2023-04-20T19:35:50.983Z,14.95
2023-04-20T19:38:14.800Z,12.35
2023-04-20T19:40:38.627Z,14.75
2023-04-20T19:43:04.062Z,14.45
2023-04-20T19:45:28.309Z,13.98
2023-04-20T19:47:52.384Z,22.23
2023-04-20T19:50:16.456Z,15.60
2023-04-20T19:52:41.483Z,15.45
2023-04-20T19:55:07.405Z,15.07
2023-04-20T19:57:31.396Z,17.27
2023-04-20T19:59:56.467Z,15.73
2023-04-20T20:02:20.714Z,16.65
2023-04-20T20:04:44.907Z,17.08
2023-04-20T20:07:08.872Z,16.48
2023-04-20T20:09:32.602Z,15.48
2023-04-20T20:11:56.332Z,12.88
2023-04-20T20:14:20.999Z,16.55
2023-04-20T20:16:47.078Z,14.55
2023-04-20T20:19:11.663Z,13.68
2023-04-20T20:21:35.514Z,16.40
2023-04-20T20:23:59.344Z,19.55
2023-04-20T20:26:23.916Z,16.23
2023-04-20T20:28:47.844Z,13.95
2023-04-20T20:31:11.660Z,19.25
2023-04-20T20:33:37.758Z,13.40
2023-04-20T20:36:02.910Z,16.27
2023-04-20T20:38:26.460Z,17.65
2023-04-20T20:40:53.471Z,16.73
2023-04-20T20:43:19.414Z,22.77
2023-04-20T20:45:43.302Z,18.63
2023-04-20T20:48:07.509Z,18.58
2023-04-20T20:50:32.848Z,22.30
2023-04-20T20:52:56.459Z,19.60
2023-04-20T20:55:20.036Z,19.48
2023-04-20T20:57:43.771Z,17.10
2023-04-20T21:00:14.133Z,21.08
2023-04-20T21:02:38.915Z,18.27
2023-04-20T21:05:03.055Z,20.55
2023-04-20T21:07:28.623Z,19.00
2023-04-20T21:09:52.639Z,18.73
2023-04-20T21:12:17.015Z,21.50
2023-04-20T21:14:41.396Z,17.52
2023-04-20T21:17:05.604Z,16.08
2023-04-20T21:19:29.735Z,17.58
2023-04-20T21:21:53.615Z,17.02
2023-04-20T21:24:19.516Z,20.02
2023-04-20T21:26:43.408Z,19.83
2023-04-20T21:29:07.976Z,17.15
2023-04-20T21:31:32.959Z,16.50
2023-04-20T21:33:57.240Z,17.70
2023-04-20T21:36:21.542Z,16.17
2023-04-20T21:38:45.662Z,16.38
2023-04-20T21:41:10.913Z,21.95
2023-04-20T21:43:34.566Z,21.10
2023-04-20T21:45:59.117Z,15.45
2023-04-20T21:48:22.919Z,18.67
2023-04-20T21:50:47.068Z,16.02
2023-04-20T21:53:10.654Z,18.70
2023-04-20T21:55:34.444Z,20.88
2023-04-20T21:57:59.886Z,16.48
2023-04-20T22:00:23.746Z,17.48
2023-04-20T22:02:49.290Z,19.15
2023-04-20T22:05:14.385Z,21.00
2023-04-20T22:07:38.311Z,14.25
2023-04-20T22:10:02.290Z,19.73
2023-04-20T22:12:38.185Z,17.85
2023-04-20T22:15:04.768Z,20.45
2023-04-20T22:17:29.831Z,18.92
2023-04-20T22:19:53.496Z,21.40
2023-04-20T22:22:17.629Z,14.55
2023-04-20T22:24:41.295Z,14.10
2023-04-20T22:27:05.942Z,14.80
2023-04-20T22:29:30.078Z,17.55
2023-04-20T22:31:55.061Z,15.77
2023-04-20T22:34:18.708Z,15.73
2023-04-20T22:36:42.402Z,15.68
2023-04-20T22:39:06.200Z,19.05
2023-04-20T22:41:29.913Z,15.40
2023-04-20T22:43:53.621Z,19.65
2023-04-20T22:46:17.176Z,18.48
2023-04-20T22:48:42.287Z,15.35
2023-04-20T22:51:06.629Z,17.77
2023-04-20T22:53:30.644Z,16.17
2023-04-20T22:55:54.176Z,16.95
2023-04-20T22:58:17.778Z,15.60
2023-04-20T23:00:41.380Z,15.63
2023-04-20T23:03:05.225Z,19.67
2023-04-20T23:05:30.405Z,30.05
2023-04-20T23:07:55.100Z,23.05
2023-04-20T23:10:18.985Z,16.30
2023-04-20T23:12:42.876Z,18.48
2023-04-20T23:15:07.473Z,18.70
2023-04-20T23:17:32.389Z,22.75
2023-04-20T23:19:56.577Z,19.38
2023-04-20T23:22:21.633Z,19.95
2023-04-20T23:24:45.152Z,19.70
2023-04-20T23:27:08.774Z,15.95
2023-04-20T23:29:33.135Z,20.05
2023-04-20T23:31:56.834Z,18.85
2023-04-20T23:34:20.577Z,21.92
2023-04-20T23:36:44.321Z,22.17
2023-04-20T23:39:09.426Z,18.77
2023-04-20T23:41:33.148Z,19.27
2023-04-20T23:43:56.788Z,17.52
2023-04-20T23:46:20.707Z,19.80
2023-04-20T23:48:44.736Z,20.02
2023-04-20T23:51:08.297Z,19.98
2023-04-20T23:53:31.879Z,22.42
2023-04-20T23:55:56.887Z,24.10
2023-04-20T23:58:20.424Z,21.90
